Storrs Mansfield, CT (06268)

2:55 AM EDT on September 02, 2015 (GMT -0400)
UConn | | Change Station
CLOSE
Current Station
Personal Weather Station
Location: Mansfield, CT
Elevation: 367 ft
Nearby Weather Stations

Elev 367 ft 41.79 °N, 72.28 °W | Updated 3 minutes ago

Clear
Clear
57.7 °F
Feels Like 57.7 °F
N
0.0
Wind Variable Wind from WSW

Today
High -- | Low -- °F
--% Chance of Precip.
Yesterday
High -- | Low -- °F
Precip. -- in
6:15 AM 7:21 PM
Waning Gibbous, 83% visible
Pressure 30.04 in
Visibility 7.0 miles
Clouds Mostly Cloudy 400 ft
Dew Point 58 °F
Humidity 99%
Rainfall 0.00 in
Snow Depth Not available.
UV 0 out of 12
Pollen 9.80 out of 12
Air Quality Not available.
Flu Activity Not available.
METAR KIJD 020652Z AUTO 00000KT 7SM BKN004 17/15 A3005 RMK AO2 SLP172 T01670150
Pressure 30.04 in
Visibility 7.0 miles
Clouds Mostly Cloudy 400 ft
Dew Point 58 °F
Humidity 99%
Rainfall 0.00 in
Snow Depth Not available.
UV 0 out of 12
Pollen 9.80 out of 12
Air Quality Not available.
Flu Activity Not available.
METAR KIJD 020652Z AUTO 00000KT 7SM BKN004 17/15 A3005 RMK AO2 SLP172 T01670150

10-Day Weather Forecast

×

Almanac

Astronomy

Sep. 02, 2015 Rise Set
Actual Time
Civil Twilight
Nautical Twilight
Astronomical Twilight
Moon
Length of Visible Light
Length of Day
Tomorrow will be .
, % of the Moon is Illuminated

Today's Extremes

State Highs State Lows

Community

WunderPhotos

Upload Photos

1,851,709 photos uploaded!

WunderBlogs® & News

Nearby

Air Quality

  Air Quality AQ Index Pollutant
Not available.

Snow Depth

Station Depth Elevation

Earthquake Activity

City Distance Mag. Time & Date
Minimum magnitude displayed is 2.5.

Coastal Water Temperatures

Place Temperature

Stations

Nearby Weather Stations

Station Location Temp. Windchill Dew Point Humidity Wind Precip. Elev Updated Type